createdAt,value
2023-02-15T00:02:54.045Z,4.180603
2023-02-15T00:06:19.213Z,4.14032
2023-02-15T00:09:44.380Z,4.089966
2023-02-15T00:13:09.582Z,4.089966
2023-02-15T00:16:34.725Z,4.089966
2023-02-15T00:19:59.893Z,4.120178
2023-02-15T00:23:25.039Z,4.079895
2023-02-15T00:26:50.191Z,4.160461
2023-02-15T00:30:15.405Z,4.241028
2023-02-15T00:33:40.552Z,4.27124
2023-02-15T00:37:05.728Z,4.241028
2023-02-15T00:40:30.893Z,4.110107
2023-02-15T00:43:56.090Z,3.928833
2023-02-15T00:47:21.299Z,3.757629
2023-02-15T00:50:46.449Z,3.717346
2023-02-15T00:54:11.605Z,3.747559
2023-02-15T00:57:36.797Z,3.727417
2023-02-15T01:01:01.977Z,3.757629
2023-02-15T01:04:27.209Z,3.747559
2023-02-15T01:07:54.380Z,3.697205
2023-02-15T01:11:17.483Z,3.495789
2023-02-15T01:14:42.635Z,3.294373
2023-02-15T01:18:07.808Z,3.13324
2023-02-15T01:21:32.997Z,2.951965
2023-02-15T01:24:58.154Z,2.841187
2023-02-15T01:28:23.333Z,2.720337
2023-02-15T01:31:48.611Z,2.569275
2023-02-15T01:35:13.663Z,2.428284
2023-02-15T01:38:38.853Z,2.307434
2023-02-15T01:42:04.029Z,2.236938
2023-02-15T01:45:29.167Z,2.226868
2023-02-15T01:48:54.346Z,2.015381
2023-02-15T01:52:19.522Z,1.87439
2023-02-15T01:55:44.694Z,1.87439
2023-02-15T01:59:09.828Z,1.834106
2023-02-15T02:02:35.039Z,1.793823
2023-02-15T02:06:00.555Z,1.793823
2023-02-15T02:09:25.319Z,1.88446
2023-02-15T02:12:50.505Z,2.085876
2023-02-15T02:16:15.694Z,2.247009
2023-02-15T02:19:40.812Z,2.236938
2023-02-15T02:23:05.986Z,2.226868
2023-02-15T02:26:31.150Z,2.095947
2023-02-15T02:29:56.369Z,1.995239
2023-02-15T02:33:21.497Z,1.864319
2023-02-15T02:36:46.691Z,1.683044
2023-02-15T02:40:11.882Z,1.411133
2023-02-15T02:43:37.026Z,1.260071
2023-02-15T02:47:02.222Z,1.109009
2023-02-15T02:50:27.361Z,1.048584
2023-02-15T02:53:52.526Z,0.897522
2023-02-15T02:57:17.702Z,0.837097
2023-02-15T03:00:42.877Z,0.837097
2023-02-15T03:04:08.061Z,0.796814
2023-02-15T03:07:33.223Z,0.786743
2023-02-15T03:10:58.396Z,0.686035
2023-02-15T03:14:23.587Z,0.655823
2023-02-15T03:17:48.758Z,0.595398
2023-02-15T03:21:13.932Z,0.474548
2023-02-15T03:24:39.095Z,0.393982
2023-02-15T03:28:04.296Z,0.323486
2023-02-15T03:31:29.571Z,0.212708
2023-02-15T03:34:54.605Z,0.041504
2023-02-15T03:38:19.808Z,0.081787
2023-02-15T03:41:44.953Z,-0.039062
2023-02-15T03:45:10.131Z,-0.099487
2023-02-15T03:48:35.319Z,-0.139771
2023-02-15T03:52:00.498Z,-0.139771
2023-02-15T03:55:25.707Z,-0.099487
2023-02-15T03:58:50.879Z,-0.139771
2023-02-15T04:02:16.060Z,-0.220337
2023-02-15T04:05:41.234Z,-0.401611
2023-02-15T04:09:06.418Z,-0.331116
2023-02-15T04:12:31.594Z,-0.210266
2023-02-15T04:15:56.764Z,-0.180054
2023-02-15T04:19:21.927Z,-0.190125
2023-02-15T04:22:47.087Z,-0.099487
2023-02-15T04:26:12.277Z,-0.00885
2023-02-15T04:29:37.523Z,0.041504
2023-02-15T04:33:02.642Z,0.021362
2023-02-15T04:36:27.849Z,0.041504
2023-02-15T04:39:53.002Z,0.041504
2023-02-15T04:43:18.176Z,0.081787
2023-02-15T04:46:43.423Z,-0.028992
2023-02-15T04:50:08.590Z,-0.039062
2023-02-15T04:53:33.791Z,-0.069275
2023-02-15T04:56:59.020Z,-0.159912
2023-02-15T05:00:24.198Z,-0.099487
2023-02-15T05:03:49.425Z,-0.250549
2023-02-15T05:07:14.576Z,-0.331116
2023-02-15T05:10:39.769Z,-0.341187
2023-02-15T05:14:04.935Z,-0.371399
2023-02-15T05:17:30.137Z,-0.391541
2023-02-15T05:20:55.352Z,-0.26062
2023-02-15T05:24:20.489Z,-0.159912
2023-02-15T05:27:45.698Z,-0.079346
2023-02-15T05:31:11.139Z,-0.139771
2023-02-15T05:34:36.098Z,-0.159912
2023-02-15T05:38:01.292Z,-0.230408
2023-02-15T05:41:26.529Z,-0.310974
2023-02-15T05:44:51.702Z,-0.472107
2023-02-15T05:48:16.897Z,-0.51239
2023-02-15T05:51:42.083Z,-0.552673
2023-02-15T05:55:07.300Z,-0.542603
2023-02-15T05:58:32.642Z,-0.572815
2023-02-15T06:01:57.934Z,-0.723877
2023-02-15T06:05:23.164Z,-0.76416
2023-02-15T06:08:48.375Z,-0.76416
2023-02-15T06:12:13.586Z,-0.693665
2023-02-15T06:15:38.769Z,-0.552673
2023-02-15T06:19:03.974Z,-0.603027
2023-02-15T06:22:29.131Z,-0.542603
2023-02-15T06:25:54.361Z,-0.522461
2023-02-15T06:29:19.584Z,-0.492249
2023-02-15T06:32:44.786Z,-0.552673
2023-02-15T06:36:09.988Z,-0.613098
2023-02-15T06:39:35.195Z,-0.723877
2023-02-15T06:43:00.390Z,-0.794373
2023-02-15T06:46:25.600Z,-0.864868
2023-02-15T06:49:50.746Z,-0.915222
2023-02-15T06:53:15.925Z,-1.146851
2023-02-15T06:56:41.118Z,-1.217346
2023-02-15T07:00:06.316Z,-1.247559
2023-02-15T07:03:31.562Z,-1.187134
2023-02-15T07:06:56.941Z,-1.01593
2023-02-15T07:10:22.177Z,-0.824585
2023-02-15T07:13:47.350Z,-0.723877
2023-02-15T07:17:32.739Z,-0.733948
2023-02-15T07:20:37.867Z,-0.603027
2023-02-15T07:24:03.044Z,-0.462036
2023-02-15T07:27:28.288Z,-0.472107
2023-02-15T07:30:53.547Z,-0.371399
2023-02-15T07:34:18.739Z,-0.180054
2023-02-15T07:37:43.994Z,-0.109558
2023-02-15T07:41:09.199Z,-0.039062
2023-02-15T07:44:34.388Z,0.071716
2023-02-15T07:47:59.589Z,0.232849
2023-02-15T07:51:24.831Z,0.353699
2023-02-15T07:54:50.088Z,0.49469
2023-02-15T07:58:15.263Z,0.595398
2023-02-15T08:01:40.505Z,0.716248
2023-02-15T08:05:06.043Z,0.907593
2023-02-15T08:08:31.285Z,1.038513
2023-02-15T08:11:56.507Z,1.239929
2023-02-15T08:15:21.686Z,1.401062
2023-02-15T08:18:46.915Z,1.602478
2023-02-15T08:22:12.149Z,1.763611
2023-02-15T08:25:37.548Z,1.975098
2023-02-15T08:29:02.785Z,2.025452
2023-02-15T08:32:27.978Z,2.156372
2023-02-15T08:35:53.203Z,2.337646
2023-02-15T08:39:18.526Z,2.559204
2023-02-15T08:42:43.756Z,2.921753
2023-02-15T08:46:09.093Z,3.244019
2023-02-15T08:49:34.286Z,3.475647
2023-02-15T08:52:59.529Z,3.717346
2023-02-15T08:56:24.777Z,3.969116
2023-02-15T08:59:49.974Z,4.120178
2023-02-15T09:03:15.388Z,4.27124
2023-02-15T09:06:40.470Z,4.412231
2023-02-15T09:10:05.676Z,4.543152
2023-02-15T09:13:30.874Z,4.664001
2023-02-15T09:16:56.217Z,4.754639
2023-02-15T09:20:21.346Z,4.905701
2023-02-15T09:23:46.492Z,5.036621
2023-02-15T09:27:11.693Z,5.1474
2023-02-15T09:30:37.020Z,5.26825
2023-02-15T09:34:02.151Z,5.358887
2023-02-15T09:37:27.401Z,5.429382
2023-02-15T09:40:52.597Z,5.540161
2023-02-15T09:44:17.820Z,5.711365
2023-02-15T09:47:43.000Z,5.852356
2023-02-15T09:51:08.222Z,5.912781
2023-02-15T09:54:33.437Z,6.003418
2023-02-15T09:57:58.662Z,6.114197
2023-02-15T10:01:23.981Z,6.194763
2023-02-15T10:04:49.154Z,6.295471
2023-02-15T10:08:14.288Z,6.355896
2023-02-15T10:11:39.526Z,6.426392
2023-02-15T10:15:04.706Z,6.547241
2023-02-15T10:18:29.910Z,6.698303
2023-02-15T10:21:55.109Z,6.839294
2023-02-15T10:25:20.310Z,6.879578
2023-02-15T10:28:45.538Z,6.970215
2023-02-15T10:32:10.856Z,7.060852
2023-02-15T10:35:35.925Z,7.091064
2023-02-15T10:39:01.127Z,7.16156
2023-02-15T10:42:26.361Z,7.232056
2023-02-15T10:45:51.588Z,7.252197
2023-02-15T10:49:16.737Z,7.433472
2023-02-15T10:52:41.935Z,7.53418
2023-02-15T10:56:07.171Z,7.604675
2023-02-15T10:59:32.435Z,7.6651
2023-02-15T11:02:57.703Z,7.745667
2023-02-15T11:06:22.865Z,7.826233
2023-02-15T11:09:48.031Z,7.886658
2023-02-15T11:13:13.238Z,7.926941
2023-02-15T11:16:38.427Z,7.977295
2023-02-15T11:20:03.731Z,8.03772
2023-02-15T11:23:29.453Z,8.108215
2023-02-15T11:26:54.637Z,8.098145
2023-02-15T11:30:20.062Z,8.067932
2023-02-15T11:33:45.119Z,7.967224
2023-02-15T11:37:10.366Z,7.947083
2023-02-15T11:40:35.522Z,7.977295
2023-02-15T11:44:00.728Z,8.017578
2023-02-15T11:47:25.955Z,8.067932
2023-02-15T11:50:51.158Z,8.098145
2023-02-15T11:54:16.415Z,8.108215
2023-02-15T11:57:41.591Z,8.158569
2023-02-15T12:01:06.797Z,8.178711
2023-02-15T12:04:31.998Z,8.178711
2023-02-15T12:07:57.214Z,8.218994
2023-02-15T12:11:22.455Z,8.329773
2023-02-15T12:14:47.641Z,8.410339
2023-02-15T12:18:12.874Z,8.551331
2023-02-15T12:21:38.078Z,8.591614
2023-02-15T12:25:03.265Z,8.652039
2023-02-15T12:28:28.484Z,8.762817
2023-02-15T12:31:53.734Z,8.772888
2023-02-15T12:35:18.914Z,8.712463
2023-02-15T12:38:44.092Z,8.712463
2023-02-15T12:42:09.351Z,8.702393
2023-02-15T12:45:34.680Z,8.611755
2023-02-15T12:48:59.787Z,8.551331
2023-02-15T12:52:25.039Z,8.521118
2023-02-15T12:55:50.234Z,8.400269
2023-02-15T12:59:15.766Z,8.400269
2023-02-15T13:02:40.952Z,8.370056
2023-02-15T13:06:06.134Z,8.329773
2023-02-15T13:09:31.393Z,8.28949
2023-02-15T13:12:56.637Z,8.339844
2023-02-15T13:16:21.896Z,8.339844
2023-02-15T13:19:47.058Z,8.359985
2023-02-15T13:23:12.225Z,8.329773
2023-02-15T13:26:37.443Z,8.28949
2023-02-15T13:30:02.802Z,8.178711
2023-02-15T13:33:27.886Z,8.047791
2023-02-15T13:36:53.080Z,7.977295
2023-02-15T13:40:18.267Z,7.977295
2023-02-15T13:43:43.527Z,7.896729
2023-02-15T13:47:08.707Z,7.896729
2023-02-15T13:50:33.975Z,7.896729
2023-02-15T13:53:59.196Z,8.017578
2023-02-15T13:57:24.376Z,8.108215
2023-02-15T14:00:49.614Z,8.218994
2023-02-15T14:04:14.833Z,8.279419
2023-02-15T14:07:40.036Z,8.370056
2023-02-15T14:11:05.420Z,8.430481
2023-02-15T14:14:30.431Z,8.410339
2023-02-15T14:17:55.682Z,8.410339
2023-02-15T14:21:20.849Z,8.400269
2023-02-15T14:24:46.083Z,8.329773
2023-02-15T14:28:11.380Z,8.148499
2023-02-15T15:04:56.519Z,6.879578
2023-02-15T15:08:21.714Z,6.849365
2023-02-15T15:11:46.951Z,6.889648
2023-02-15T15:15:12.172Z,6.809082
2023-02-15T15:18:37.405Z,6.869507
2023-02-15T15:22:02.683Z,6.849365
2023-02-15T15:25:27.884Z,6.869507
2023-02-15T15:28:53.087Z,6.919861
2023-02-15T15:32:18.348Z,6.879578
2023-02-15T15:35:43.510Z,6.809082
2023-02-15T15:39:08.752Z,6.698303
2023-02-15T15:42:33.932Z,6.607666
2023-02-15T15:45:59.213Z,6.517029
2023-02-15T15:49:24.372Z,6.365967
2023-02-15T15:52:49.580Z,6.15448
2023-02-15T15:56:14.895Z,5.942993
2023-02-15T15:59:40.005Z,5.812073
2023-02-15T16:03:05.314Z,5.681152
2023-02-15T16:06:30.445Z,5.630798
2023-02-15T16:09:55.660Z,5.560303
2023-02-15T16:13:20.909Z,5.429382
2023-02-15T16:16:46.081Z,5.348816
2023-02-15T16:20:11.296Z,5.27832
2023-02-15T16:23:36.517Z,5.238037
2023-02-15T16:27:01.737Z,5.1474
2023-02-15T16:30:27.020Z,5.056763
2023-02-15T16:33:52.169Z,4.935913
2023-02-15T16:37:17.386Z,4.915771
2023-02-15T16:40:42.590Z,4.845276
2023-02-15T16:44:07.810Z,4.674072
2023-02-15T16:47:33.035Z,4.543152
2023-02-15T16:50:58.237Z,4.412231
2023-02-15T16:54:23.445Z,4.371948
2023-02-15T16:57:48.674Z,4.291382
2023-02-15T17:01:13.979Z,4.301453
2023-02-15T17:04:39.101Z,4.301453
2023-02-15T17:08:04.273Z,4.261169
2023-02-15T17:11:29.491Z,4.180603
2023-02-15T17:14:54.701Z,4.150391
2023-02-15T17:18:19.924Z,3.979187
2023-02-15T17:21:45.182Z,3.938904
2023-02-15T17:25:10.363Z,3.858337
2023-02-15T17:28:35.565Z,3.797913
2023-02-15T17:32:00.794Z,3.687134
2023-02-15T17:35:25.939Z,3.606567
2023-02-15T17:38:51.196Z,3.616638
2023-02-15T17:42:16.399Z,3.566284
2023-02-15T17:45:41.742Z,3.536072
2023-02-15T17:49:06.910Z,3.364868
2023-02-15T17:52:32.103Z,3.26416
2023-02-15T17:55:57.349Z,3.183594
2023-02-15T17:59:22.503Z,3.183594
2023-02-15T18:02:47.697Z,3.143311
2023-02-15T18:06:12.926Z,3.062744
2023-02-15T18:09:38.103Z,3.032532
2023-02-15T18:13:03.317Z,2.951965
2023-02-15T18:16:28.530Z,2.901611
2023-02-15T18:19:53.672Z,2.891541
2023-02-15T18:23:18.842Z,2.901611
2023-02-15T18:26:44.042Z,2.871399
2023-02-15T18:30:09.347Z,2.931824
2023-02-15T18:33:34.404Z,2.931824
2023-02-15T18:36:59.583Z,2.841187
2023-02-15T18:40:24.839Z,2.810974
2023-02-15T18:43:50.089Z,2.821045
2023-02-15T18:47:15.396Z,2.901611
2023-02-15T18:50:40.649Z,2.901611
2023-02-15T18:54:05.887Z,2.962036
2023-02-15T18:57:31.147Z,3.032532
2023-02-15T19:00:56.415Z,3.022461
2023-02-15T19:04:23.083Z,3.032532
2023-02-15T19:07:46.870Z,3.062744
2023-02-15T19:11:12.096Z,3.052673
2023-02-15T19:14:37.357Z,3.103027
2023-02-15T19:18:02.675Z,3.153381
2023-02-15T19:21:28.035Z,3.153381
2023-02-15T19:24:53.225Z,3.173523
2023-02-15T19:28:18.452Z,3.113098
2023-02-15T19:31:43.825Z,3.183594
2023-02-15T19:35:08.903Z,3.213806
2023-02-15T19:38:34.131Z,3.103027
2023-02-15T19:41:59.377Z,2.992249
2023-02-15T19:45:24.609Z,2.962036
2023-02-15T19:48:50.949Z,2.951965
2023-02-15T19:52:15.164Z,2.821045
2023-02-15T19:55:40.527Z,2.750549
2023-02-15T19:59:05.671Z,2.750549
2023-02-15T20:02:30.898Z,2.599487
2023-02-15T20:05:56.167Z,2.569275
2023-02-15T20:09:21.435Z,2.589417
2023-02-15T20:12:47.599Z,2.599487
2023-02-15T20:16:11.945Z,2.589417
2023-02-15T20:19:37.149Z,2.569275
2023-02-15T20:23:02.389Z,2.518921
2023-02-15T20:26:27.623Z,2.488708
2023-02-15T20:29:53.020Z,2.478638
2023-02-15T20:33:18.148Z,2.518921
2023-02-15T20:36:43.408Z,2.478638
2023-02-15T20:40:08.629Z,2.488708
2023-02-15T20:43:33.880Z,2.518921
2023-02-15T20:46:59.333Z,2.458496
2023-02-15T20:50:24.424Z,2.408142
2023-02-15T20:53:49.667Z,2.388
2023-02-15T20:57:14.883Z,2.267151
2023-02-15T21:00:40.144Z,2.267151
2023-02-15T21:04:07.287Z,2.236938
2023-02-15T21:07:30.638Z,2.267151
2023-02-15T21:10:55.879Z,2.357788
2023-02-15T21:14:21.096Z,2.428284
2023-02-15T21:17:46.300Z,2.609558
2023-02-15T21:21:11.581Z,2.750549
2023-02-15T21:24:36.766Z,2.810974
2023-02-15T21:28:01.973Z,2.821045
2023-02-15T21:31:27.354Z,2.921753
2023-02-15T21:34:52.398Z,2.972107
2023-02-15T21:38:17.754Z,2.931824
2023-02-15T21:41:42.833Z,2.931824
2023-02-15T21:45:08.043Z,2.851257
2023-02-15T21:48:33.238Z,2.770691
2023-02-15T21:51:58.466Z,2.639771
2023-02-15T21:55:23.743Z,2.6297
2023-02-15T21:58:48.917Z,2.720337
2023-02-15T22:02:14.153Z,2.720337
2023-02-15T22:05:39.399Z,2.599487
2023-02-15T22:09:04.634Z,2.488708
2023-02-15T22:12:29.959Z,2.347717
2023-02-15T22:15:55.119Z,2.337646
2023-02-15T22:19:20.309Z,2.277222
2023-02-15T22:22:45.526Z,2.055664
2023-02-15T22:26:10.737Z,1.975098
2023-02-15T22:29:35.952Z,1.793823
2023-02-15T22:33:01.148Z,1.50177
2023-02-15T22:36:26.331Z,1.360779
2023-02-15T22:39:51.526Z,1.441345
2023-02-15T22:43:16.742Z,1.260071
2023-02-15T22:46:42.006Z,1.179504
2023-02-15T22:50:07.202Z,1.260071
2023-02-15T22:53:32.415Z,1.109009
2023-02-15T22:56:57.620Z,1.11908
2023-02-15T23:00:22.803Z,1.078796
2023-02-15T23:03:48.079Z,1.109009
2023-02-15T23:07:13.305Z,1.199646
2023-02-15T23:10:38.501Z,1.290283
2023-02-15T23:14:03.757Z,1.320496
2023-02-15T23:17:28.983Z,1.401062
2023-02-15T23:20:54.220Z,1.451416
2023-02-15T23:24:19.437Z,1.50177
2023-02-15T23:27:44.649Z,1.50177
2023-02-15T23:31:09.880Z,1.471558
2023-02-15T23:34:35.061Z,1.471558
2023-02-15T23:38:00.294Z,1.511841
2023-02-15T23:41:25.507Z,1.542053
2023-02-15T23:44:50.700Z,1.683044
2023-02-15T23:48:17.613Z,1.723328
2023-02-15T23:51:42.835Z,1.793823
2023-02-15T23:55:08.064Z,1.793823
2023-02-15T23:58:33.252Z,1.773682
